Baker Ranch, California
Current Conditions -  °F | °C
As of 7:52 AM on Sunday 21 Dec 2014 (Local Time) from KBLU Reporting Station
Light Rain Light Rain  
Wind Chill: 39°   Ceiling: 800
Heat Index: 43°   Visibility: 0.5mi
Dew Point: 41°   Wind: 6mph
Humidity: 93%   Direction: 170°S
Pressure: 30.32"   Gusts: NA
Location:  39.0724°N, 120.571°W
Report Text: KBLU 211552Z AUTO 17005KT 1/2SM -RA FG VV008 06/05 A3032 RMK AO2 RAB20 SLP251 P0002 T00610050
Loading
Personal Weather Stations






























Interactive Weather Map New forecast layout! Learn more

10-Day Weather Forecast

Advertisements
Track Severe Weather on mobile